sensor_id;sensor_type;location;lat;lon;timestamp;P1;durP1;ratioP1;P2;durP2;ratioP2
33421;SDS011;19763;55.798;37.782;2024-01-30T00:01:29;12.15;;;9.02;;
33421;SDS011;19763;55.798;37.782;2024-01-30T00:03:55;12.73;;;9.00;;
33421;SDS011;19763;55.798;37.782;2024-01-30T00:06:20;12.05;;;9.10;;
33421;SDS011;19763;55.798;37.782;2024-01-30T00:08:47;11.02;;;8.27;;
33421;SDS011;19763;55.798;37.782;2024-01-30T00:11:14;10.75;;;8.18;;
33421;SDS011;19763;55.798;37.782;2024-01-30T00:13:41;12.07;;;8.35;;
33421;SDS011;19763;55.798;37.782;2024-01-30T00:16:07;12.98;;;9.35;;
33421;SDS011;19763;55.798;37.782;2024-01-30T00:18:34;11.77;;;8.65;;
33421;SDS011;19763;55.798;37.782;2024-01-30T00:21:00;11.32;;;8.07;;
33421;SDS011;19763;55.798;37.782;2024-01-30T00:23:26;12.38;;;8.68;;
33421;SDS011;19763;55.798;37.782;2024-01-30T00:25:52;9.57;;;7.90;;
33421;SDS011;19763;55.798;37.782;2024-01-30T00:28:17;10.23;;;7.57;;
33421;SDS011;19763;55.798;37.782;2024-01-30T00:30:43;10.82;;;8.05;;
33421;SDS011;19763;55.798;37.782;2024-01-30T00:33:09;8.40;;;7.45;;
33421;SDS011;19763;55.798;37.782;2024-01-30T00:35:35;9.73;;;7.82;;
33421;SDS011;19763;55.798;37.782;2024-01-30T00:38:00;10.13;;;7.95;;
33421;SDS011;19763;55.798;37.782;2024-01-30T00:40:26;10.60;;;7.57;;
33421;SDS011;19763;55.798;37.782;2024-01-30T00:42:52;13.68;;;8.25;;
33421;SDS011;19763;55.798;37.782;2024-01-30T00:45:18;9.35;;;7.93;;
33421;SDS011;19763;55.798;37.782;2024-01-30T00:47:44;10.32;;;8.38;;
33421;SDS011;19763;55.798;37.782;2024-01-30T00:50:09;9.63;;;7.07;;
33421;SDS011;19763;55.798;37.782;2024-01-30T00:52:36;10.30;;;8.45;;
33421;SDS011;19763;55.798;37.782;2024-01-30T00:55:02;9.77;;;7.50;;
33421;SDS011;19763;55.798;37.782;2024-01-30T00:57:28;10.18;;;7.68;;
33421;SDS011;19763;55.798;37.782;2024-01-30T00:59:54;8.73;;;7.40;;
33421;SDS011;19763;55.798;37.782;2024-01-30T01:02:20;10.15;;;8.13;;
33421;SDS011;19763;55.798;37.782;2024-01-30T01:04:45;10.98;;;8.00;;
33421;SDS011;19763;55.798;37.782;2024-01-30T01:07:11;11.07;;;8.25;;
33421;SDS011;19763;55.798;37.782;2024-01-30T01:09:37;11.32;;;8.48;;
33421;SDS011;19763;55.798;37.782;2024-01-30T01:12:03;10.82;;;8.40;;
33421;SDS011;19763;55.798;37.782;2024-01-30T01:14:30;9.48;;;7.97;;
33421;SDS011;19763;55.798;37.782;2024-01-30T01:16:55;10.52;;;8.07;;
33421;SDS011;19763;55.798;37.782;2024-01-30T01:19:21;10.15;;;7.97;;
33421;SDS011;19763;55.798;37.782;2024-01-30T01:21:47;10.77;;;8.18;;
33421;SDS011;19763;55.798;37.782;2024-01-30T01:24:13;10.20;;;8.18;;
33421;SDS011;19763;55.798;37.782;2024-01-30T01:26:39;9.48;;;7.82;;
33421;SDS011;19763;55.798;37.782;2024-01-30T01:29:05;9.80;;;7.60;;
33421;SDS011;19763;55.798;37.782;2024-01-30T01:31:38;10.90;;;8.35;;
33421;SDS011;19763;55.798;37.782;2024-01-30T01:34:11;9.70;;;7.82;;
33421;SDS011;19763;55.798;37.782;2024-01-30T01:36:38;10.38;;;7.90;;
33421;SDS011;19763;55.798;37.782;2024-01-30T01:39:04;9.68;;;8.00;;
33421;SDS011;19763;55.798;37.782;2024-01-30T01:41:31;10.52;;;8.10;;
33421;SDS011;19763;55.798;37.782;2024-01-30T01:43:57;9.48;;;7.93;;
33421;SDS011;19763;55.798;37.782;2024-01-30T01:46:23;10.75;;;7.93;;
33421;SDS011;19763;55.798;37.782;2024-01-30T01:48:51;10.45;;;8.18;;
33421;SDS011;19763;55.798;37.782;2024-01-30T01:51:17;10.27;;;8.05;;
33421;SDS011;19763;55.798;37.782;2024-01-30T01:53:42;9.90;;;7.80;;
33421;SDS011;19763;55.798;37.782;2024-01-30T01:56:08;10.02;;;8.27;;
33421;SDS011;19763;55.798;37.782;2024-01-30T01:58:34;10.68;;;7.82;;
33421;SDS011;19763;55.798;37.782;2024-01-30T02:01:01;10.23;;;7.90;;
33421;SDS011;19763;55.798;37.782;2024-01-30T02:03:27;9.07;;;7.88;;
33421;SDS011;19763;55.798;37.782;2024-01-30T02:05:53;11.65;;;8.35;;
33421;SDS011;19763;55.798;37.782;2024-01-30T02:08:20;10.85;;;8.55;;
33421;SDS011;19763;55.798;37.782;2024-01-30T02:10:46;10.70;;;8.10;;
33421;SDS011;19763;55.798;37.782;2024-01-30T02:13:12;10.73;;;8.77;;
33421;SDS011;19763;55.798;37.782;2024-01-30T02:15:38;10.88;;;8.38;;
33421;SDS011;19763;55.798;37.782;2024-01-30T02:18:04;11.65;;;8.70;;
33421;SDS011;19763;55.798;37.782;2024-01-30T02:20:50;13.02;;;8.02;;
33421;SDS011;19763;55.798;37.782;2024-01-30T02:23:19;10.57;;;8.40;;
33421;SDS011;19763;55.798;37.782;2024-01-30T02:25:45;13.25;;;10.63;;
33421;SDS011;19763;55.798;37.782;2024-01-30T02:28:14;11.00;;;8.48;;
33421;SDS011;19763;55.798;37.782;2024-01-30T02:30:44;10.95;;;8.70;;
33421;SDS011;19763;55.798;37.782;2024-01-30T02:33:10;11.88;;;9.13;;
33421;SDS011;19763;55.798;37.782;2024-01-30T02:35:36;11.55;;;8.88;;
33421;SDS011;19763;55.798;37.782;2024-01-30T02:38:01;11.18;;;8.80;;
33421;SDS011;19763;55.798;37.782;2024-01-30T02:40:27;10.75;;;8.40;;
33421;SDS011;19763;55.798;37.782;2024-01-30T02:42:53;9.60;;;8.23;;
33421;SDS011;19763;55.798;37.782;2024-01-30T02:45:19;11.85;;;9.07;;
33421;SDS011;19763;55.798;37.782;2024-01-30T02:47:45;9.32;;;8.02;;
33421;SDS011;19763;55.798;37.782;2024-01-30T02:50:10;12.20;;;8.60;;
33421;SDS011;19763;55.798;37.782;2024-01-30T02:52:36;9.80;;;8.30;;
33421;SDS011;19763;55.798;37.782;2024-01-30T02:55:02;12.40;;;8.88;;
33421;SDS011;19763;55.798;37.782;2024-01-30T02:57:30;11.90;;;9.40;;
33421;SDS011;19763;55.798;37.782;2024-01-30T02:59:55;12.52;;;8.48;;
33421;SDS011;19763;55.798;37.782;2024-01-30T03:02:21;11.15;;;8.40;;
33421;SDS011;19763;55.798;37.782;2024-01-30T03:04:47;11.75;;;8.85;;
33421;SDS011;19763;55.798;37.782;2024-01-30T03:07:13;14.80;;;9.15;;
33421;SDS011;19763;55.798;37.782;2024-01-30T03:09:38;10.73;;;8.80;;
33421;SDS011;19763;55.798;37.782;2024-01-30T03:12:07;11.48;;;8.48;;
33421;SDS011;19763;55.798;37.782;2024-01-30T03:14:33;10.30;;;8.40;;
33421;SDS011;19763;55.798;37.782;2024-01-30T03:16:59;13.15;;;9.23;;
33421;SDS011;19763;55.798;37.782;2024-01-30T03:19:24;11.80;;;8.63;;
33421;SDS011;19763;55.798;37.782;2024-01-30T03:21:50;10.27;;;8.68;;
33421;SDS011;19763;55.798;37.782;2024-01-30T03:24:16;11.40;;;8.25;;
33421;SDS011;19763;55.798;37.782;2024-01-30T03:26:42;10.45;;;8.43;;
33421;SDS011;19763;55.798;37.782;2024-01-30T03:29:09;10.85;;;8.20;;
33421;SDS011;19763;55.798;37.782;2024-01-30T03:31:35;10.85;;;8.27;;
33421;SDS011;19763;55.798;37.782;2024-01-30T03:34:01;10.82;;;8.63;;
33421;SDS011;19763;55.798;37.782;2024-01-30T03:36:27;11.00;;;8.35;;
33421;SDS011;19763;55.798;37.782;2024-01-30T03:38:53;9.57;;;8.10;;
33421;SDS011;19763;55.798;37.782;2024-01-30T03:41:19;14.57;;;8.43;;
33421;SDS011;19763;55.798;37.782;2024-01-30T03:43:46;10.65;;;7.82;;
33421;SDS011;19763;55.798;37.782;2024-01-30T03:46:12;10.90;;;8.50;;
33421;SDS011;19763;55.798;37.782;2024-01-30T03:48:38;10.35;;;8.35;;
33421;SDS011;19763;55.798;37.782;2024-01-30T03:51:04;11.90;;;9.07;;
33421;SDS011;19763;55.798;37.782;2024-01-30T03:53:30;12.57;;;8.68;;
33421;SDS011;19763;55.798;37.782;2024-01-30T03:55:56;11.57;;;8.73;;
33421;SDS011;19763;55.798;37.782;2024-01-30T03:58:22;9.50;;;8.38;;
33421;SDS011;19763;55.798;37.782;2024-01-30T04:00:48;10.73;;;8.30;;
33421;SDS011;19763;55.798;37.782;2024-01-30T04:03:16;9.63;;;7.82;;
33421;SDS011;19763;55.798;37.782;2024-01-30T04:05:43;11.30;;;8.13;;
33421;SDS011;19763;55.798;37.782;2024-01-30T04:08:09;12.00;;;8.88;;
33421;SDS011;19763;55.798;37.782;2024-01-30T04:10:35;9.90;;;8.10;;
33421;SDS011;19763;55.798;37.782;2024-01-30T04:13:00;10.75;;;8.23;;
33421;SDS011;19763;55.798;37.782;2024-01-30T04:15:26;11.18;;;8.82;;
33421;SDS011;19763;55.798;37.782;2024-01-30T04:17:53;10.85;;;8.48;;
33421;SDS011;19763;55.798;37.782;2024-01-30T04:20:18;16.42;;;9.50;;
33421;SDS011;19763;55.798;37.782;2024-01-30T04:22:44;10.55;;;8.55;;
33421;SDS011;19763;55.798;37.782;2024-01-30T04:25:11;10.13;;;8.50;;
33421;SDS011;19763;55.798;37.782;2024-01-30T04:27:37;11.23;;;8.38;;
33421;SDS011;19763;55.798;37.782;2024-01-30T04:30:03;11.20;;;8.65;;
33421;SDS011;19763;55.798;37.782;2024-01-30T04:32:31;11.45;;;8.63;;
33421;SDS011;19763;55.798;37.782;2024-01-30T04:34:57;12.80;;;9.20;;
33421;SDS011;19763;55.798;37.782;2024-01-30T04:37:23;10.77;;;8.05;;
33421;SDS011;19763;55.798;37.782;2024-01-30T04:39:50;10.98;;;8.50;;
33421;SDS011;19763;55.798;37.782;2024-01-30T04:42:16;13.25;;;8.85;;
33421;SDS011;19763;55.798;37.782;2024-01-30T04:44:42;11.82;;;9.20;;
33421;SDS011;19763;55.798;37.782;2024-01-30T04:47:08;11.63;;;9.10;;
33421;SDS011;19763;55.798;37.782;2024-01-30T04:49:36;14.05;;;9.20;;
33421;SDS011;19763;55.798;37.782;2024-01-30T04:52:02;12.50;;;9.23;;
33421;SDS011;19763;55.798;37.782;2024-01-30T04:54:28;10.27;;;8.73;;
33421;SDS011;19763;55.798;37.782;2024-01-30T04:56:53;13.25;;;8.88;;
33421;SDS011;19763;55.798;37.782;2024-01-30T04:59:19;12.40;;;9.15;;
33421;SDS011;19763;55.798;37.782;2024-01-30T05:01:45;13.43;;;9.05;;
33421;SDS011;19763;55.798;37.782;2024-01-30T05:04:10;12.98;;;9.93;;
33421;SDS011;19763;55.798;37.782;2024-01-30T05:06:36;15.32;;;10.35;;
33421;SDS011;19763;55.798;37.782;2024-01-30T05:09:02;15.55;;;10.52;;
33421;SDS011;19763;55.798;37.782;2024-01-30T05:11:31;12.93;;;9.18;;
33421;SDS011;19763;55.798;37.782;2024-01-30T05:14:01;11.55;;;9.05;;
33421;SDS011;19763;55.798;37.782;2024-01-30T05:16:27;13.45;;;9.77;;
33421;SDS011;19763;55.798;37.782;2024-01-30T05:18:53;13.20;;;10.23;;
33421;SDS011;19763;55.798;37.782;2024-01-30T05:21:18;13.18;;;9.93;;
33421;SDS011;19763;55.798;37.782;2024-01-30T05:23:44;11.95;;;9.13;;
33421;SDS011;19763;55.798;37.782;2024-01-30T05:26:10;19.42;;;9.25;;
33421;SDS011;19763;55.798;37.782;2024-01-30T05:28:35;14.13;;;9.57;;
33421;SDS011;19763;55.798;37.782;2024-01-30T05:31:01;12.27;;;9.55;;
33421;SDS011;19763;55.798;37.782;2024-01-30T05:33:27;11.82;;;9.40;;
33421;SDS011;19763;55.798;37.782;2024-01-30T05:35:53;13.55;;;10.20;;
33421;SDS011;19763;55.798;37.782;2024-01-30T05:38:19;16.73;;;10.88;;
33421;SDS011;19763;55.798;37.782;2024-01-30T05:40:45;13.45;;;9.38;;
33421;SDS011;19763;55.798;37.782;2024-01-30T05:43:11;14.63;;;10.07;;
33421;SDS011;19763;55.798;37.782;2024-01-30T05:45:37;15.05;;;9.77;;
33421;SDS011;19763;55.798;37.782;2024-01-30T05:48:03;13.85;;;10.23;;
33421;SDS011;19763;55.798;37.782;2024-01-30T05:50:29;13.07;;;10.48;;
33421;SDS011;19763;55.798;37.782;2024-01-30T05:52:55;15.07;;;10.20;;
33421;SDS011;19763;55.798;37.782;2024-01-30T05:55:21;16.13;;;10.60;;
33421;SDS011;19763;55.798;37.782;2024-01-30T05:57:47;12.25;;;9.57;;
33421;SDS011;19763;55.798;37.782;2024-01-30T06:00:13;14.82;;;10.23;;
33421;SDS011;19763;55.798;37.782;2024-01-30T06:02:39;13.50;;;10.40;;
33421;SDS011;19763;55.798;37.782;2024-01-30T06:05:05;14.57;;;10.80;;
33421;SDS011;19763;55.798;37.782;2024-01-30T06:07:31;15.73;;;10.90;;
33421;SDS011;19763;55.798;37.782;2024-01-30T06:09:57;14.45;;;10.40;;
33421;SDS011;19763;55.798;37.782;2024-01-30T06:12:22;15.05;;;10.68;;
33421;SDS011;19763;55.798;37.782;2024-01-30T06:14:48;16.48;;;10.63;;
33421;SDS011;19763;55.798;37.782;2024-01-30T06:17:14;15.50;;;10.77;;
33421;SDS011;19763;55.798;37.782;2024-01-30T06:19:39;15.98;;;10.70;;
33421;SDS011;19763;55.798;37.782;2024-01-30T06:22:05;16.80;;;10.63;;
33421;SDS011;19763;55.798;37.782;2024-01-30T06:24:31;18.23;;;10.50;;
33421;SDS011;19763;55.798;37.782;2024-01-30T06:26:57;15.10;;;10.82;;
33421;SDS011;19763;55.798;37.782;2024-01-30T06:29:23;16.63;;;11.32;;
33421;SDS011;19763;55.798;37.782;2024-01-30T06:31:52;18.73;;;11.27;;
33421;SDS011;19763;55.798;37.782;2024-01-30T06:34:18;18.52;;;11.98;;
33421;SDS011;19763;55.798;37.782;2024-01-30T06:36:43;17.83;;;11.63;;
33421;SDS011;19763;55.798;37.782;2024-01-30T06:39:09;14.68;;;10.40;;
33421;SDS011;19763;55.798;37.782;2024-01-30T06:41:35;14.90;;;10.95;;
33421;SDS011;19763;55.798;37.782;2024-01-30T06:44:04;16.60;;;11.90;;
33421;SDS011;19763;55.798;37.782;2024-01-30T06:46:31;19.17;;;11.75;;
33421;SDS011;19763;55.798;37.782;2024-01-30T06:48:57;16.83;;;11.45;;
33421;SDS011;19763;55.798;37.782;2024-01-30T06:51:23;14.25;;;11.00;;
33421;SDS011;19763;55.798;37.782;2024-01-30T06:53:49;16.05;;;11.73;;
33421;SDS011;19763;55.798;37.782;2024-01-30T06:56:15;17.27;;;11.63;;
33421;SDS011;19763;55.798;37.782;2024-01-30T06:58:46;18.20;;;11.93;;
33421;SDS011;19763;55.798;37.782;2024-01-30T07:01:15;20.08;;;12.15;;
33421;SDS011;19763;55.798;37.782;2024-01-30T07:03:41;18.90;;;11.98;;
33421;SDS011;19763;55.798;37.782;2024-01-30T07:06:07;18.92;;;11.48;;
33421;SDS011;19763;55.798;37.782;2024-01-30T07:08:34;17.85;;;11.32;;
33421;SDS011;19763;55.798;37.782;2024-01-30T07:11:00;14.73;;;10.82;;
33421;SDS011;19763;55.798;37.782;2024-01-30T07:13:27;16.50;;;12.00;;
33421;SDS011;19763;55.798;37.782;2024-01-30T07:15:54;16.98;;;12.00;;
33421;SDS011;19763;55.798;37.782;2024-01-30T07:18:19;19.60;;;11.68;;
33421;SDS011;19763;55.798;37.782;2024-01-30T07:20:45;18.02;;;11.65;;
33421;SDS011;19763;55.798;37.782;2024-01-30T07:23:15;16.92;;;11.45;;
33421;SDS011;19763;55.798;37.782;2024-01-30T07:25:43;17.13;;;11.77;;
33421;SDS011;19763;55.798;37.782;2024-01-30T07:28:14;16.02;;;11.52;;
33421;SDS011;19763;55.798;37.782;2024-01-30T07:30:42;16.52;;;11.65;;
33421;SDS011;19763;55.798;37.782;2024-01-30T07:33:08;17.80;;;11.77;;
33421;SDS011;19763;55.798;37.782;2024-01-30T07:35:34;20.48;;;12.32;;
33421;SDS011;19763;55.798;37.782;2024-01-30T07:38:01;17.08;;;11.27;;
33421;SDS011;19763;55.798;37.782;2024-01-30T07:40:27;20.10;;;11.95;;
33421;SDS011;19763;55.798;37.782;2024-01-30T07:42:55;18.95;;;12.00;;
33421;SDS011;19763;55.798;37.782;2024-01-30T07:45:21;20.23;;;12.27;;
33421;SDS011;19763;55.798;37.782;2024-01-30T07:47:51;17.63;;;11.60;;
33421;SDS011;19763;55.798;37.782;2024-01-30T07:50:17;20.35;;;12.60;;
33421;SDS011;19763;55.798;37.782;2024-01-30T07:52:43;18.55;;;11.95;;
33421;SDS011;19763;55.798;37.782;2024-01-30T07:55:09;16.50;;;12.65;;
33421;SDS011;19763;55.798;37.782;2024-01-30T07:57:35;17.13;;;12.00;;
33421;SDS011;19763;55.798;37.782;2024-01-30T08:00:01;24.13;;;13.27;;
33421;SDS011;19763;55.798;37.782;2024-01-30T08:02:30;17.52;;;12.32;;
33421;SDS011;19763;55.798;37.782;2024-01-30T08:04:55;20.92;;;12.30;;
33421;SDS011;19763;55.798;37.782;2024-01-30T08:07:21;18.20;;;12.20;;
33421;SDS011;19763;55.798;37.782;2024-01-30T08:09:47;17.67;;;11.68;;
33421;SDS011;19763;55.798;37.782;2024-01-30T08:12:13;21.35;;;12.30;;
33421;SDS011;19763;55.798;37.782;2024-01-30T08:14:39;20.55;;;11.65;;
33421;SDS011;19763;55.798;37.782;2024-01-30T08:17:06;24.63;;;17.38;;
33421;SDS011;19763;55.798;37.782;2024-01-30T08:19:33;18.88;;;12.40;;
33421;SDS011;19763;55.798;37.782;2024-01-30T08:21:59;20.02;;;12.73;;
33421;SDS011;19763;55.798;37.782;2024-01-30T08:24:24;18.33;;;12.00;;
33421;SDS011;19763;55.798;37.782;2024-01-30T08:26:50;19.58;;;12.40;;
33421;SDS011;19763;55.798;37.782;2024-01-30T08:29:16;22.15;;;12.48;;
33421;SDS011;19763;55.798;37.782;2024-01-30T08:31:42;21.73;;;13.00;;
33421;SDS011;19763;55.798;37.782;2024-01-30T08:34:07;22.27;;;13.13;;
33421;SDS011;19763;55.798;37.782;2024-01-30T08:36:33;16.67;;;12.82;;
33421;SDS011;19763;55.798;37.782;2024-01-30T08:38:59;16.42;;;12.25;;
33421;SDS011;19763;55.798;37.782;2024-01-30T08:41:25;21.00;;;12.10;;
33421;SDS011;19763;55.798;37.782;2024-01-30T08:43:51;18.25;;;12.45;;
33421;SDS011;19763;55.798;37.782;2024-01-30T08:46:20;21.85;;;12.25;;
33421;SDS011;19763;55.798;37.782;2024-01-30T08:48:46;20.95;;;13.50;;
33421;SDS011;19763;55.798;37.782;2024-01-30T08:51:13;19.50;;;12.32;;
33421;SDS011;19763;55.798;37.782;2024-01-30T08:53:40;17.65;;;12.40;;
33421;SDS011;19763;55.798;37.782;2024-01-30T08:56:06;22.80;;;13.15;;
33421;SDS011;19763;55.798;37.782;2024-01-30T08:58:32;23.42;;;12.85;;
33421;SDS011;19763;55.798;37.782;2024-01-30T09:00:58;21.00;;;12.27;;
33421;SDS011;19763;55.798;37.782;2024-01-30T09:03:24;21.27;;;13.65;;
33421;SDS011;19763;55.798;37.782;2024-01-30T09:05:49;21.75;;;13.25;;
33421;SDS011;19763;55.798;37.782;2024-01-30T09:08:15;19.38;;;12.32;;
33421;SDS011;19763;55.798;37.782;2024-01-30T09:10:41;17.33;;;12.43;;
33421;SDS011;19763;55.798;37.782;2024-01-30T09:13:06;19.70;;;12.18;;
33421;SDS011;19763;55.798;37.782;2024-01-30T09:15:32;18.63;;;12.38;;
33421;SDS011;19763;55.798;37.782;2024-01-30T09:17:58;20.40;;;11.88;;
33421;SDS011;19763;55.798;37.782;2024-01-30T09:20:23;20.48;;;12.65;;
33421;SDS011;19763;55.798;37.782;2024-01-30T09:22:49;17.98;;;12.90;;
33421;SDS011;19763;55.798;37.782;2024-01-30T09:25:15;21.88;;;13.18;;
33421;SDS011;19763;55.798;37.782;2024-01-30T09:27:41;18.65;;;12.85;;
33421;SDS011;19763;55.798;37.782;2024-01-30T09:30:06;23.55;;;13.27;;
33421;SDS011;19763;55.798;37.782;2024-01-30T09:32:32;16.48;;;12.80;;
33421;SDS011;19763;55.798;37.782;2024-01-30T09:34:58;18.58;;;12.90;;
33421;SDS011;19763;55.798;37.782;2024-01-30T09:37:24;17.70;;;12.45;;
33421;SDS011;19763;55.798;37.782;2024-01-30T09:39:49;20.90;;;12.90;;
33421;SDS011;19763;55.798;37.782;2024-01-30T09:45:03;19.88;;;13.02;;
33421;SDS011;19763;55.798;37.782;2024-01-30T09:47:40;19.60;;;13.73;;
33421;SDS011;19763;55.798;37.782;2024-01-30T09:50:11;18.15;;;12.82;;
33421;SDS011;19763;55.798;37.782;2024-01-30T09:52:38;20.85;;;13.15;;
33421;SDS011;19763;55.798;37.782;2024-01-30T09:55:04;18.73;;;12.50;;
33421;SDS011;19763;55.798;37.782;2024-01-30T09:57:31;18.42;;;12.98;;
33421;SDS011;19763;55.798;37.782;2024-01-30T09:59:57;20.15;;;13.07;;
33421;SDS011;19763;55.798;37.782;2024-01-30T10:02:23;20.70;;;13.27;;
33421;SDS011;19763;55.798;37.782;2024-01-30T10:04:49;19.80;;;12.88;;
33421;SDS011;19763;55.798;37.782;2024-01-30T10:07:17;21.13;;;13.13;;
33421;SDS011;19763;55.798;37.782;2024-01-30T10:09:43;20.02;;;13.65;;
33421;SDS011;19763;55.798;37.782;2024-01-30T10:12:09;20.85;;;13.00;;
33421;SDS011;19763;55.798;37.782;2024-01-30T10:14:38;18.67;;;13.43;;
33421;SDS011;19763;55.798;37.782;2024-01-30T10:17:04;19.63;;;13.32;;
33421;SDS011;19763;55.798;37.782;2024-01-30T10:19:31;21.52;;;13.48;;
33421;SDS011;19763;55.798;37.782;2024-01-30T10:21:57;18.73;;;13.68;;
33421;SDS011;19763;55.798;37.782;2024-01-30T10:24:25;18.52;;;12.38;;
33421;SDS011;19763;55.798;37.782;2024-01-30T10:26:51;17.85;;;12.75;;
33421;SDS011;19763;55.798;37.782;2024-01-30T10:29:17;19.20;;;12.27;;
33421;SDS011;19763;55.798;37.782;2024-01-30T10:31:42;19.10;;;12.68;;
33421;SDS011;19763;55.798;37.782;2024-01-30T10:34:08;20.30;;;12.95;;
33421;SDS011;19763;55.798;37.782;2024-01-30T10:36:35;19.80;;;12.60;;
33421;SDS011;19763;55.798;37.782;2024-01-30T10:39:08;24.15;;;13.68;;
33421;SDS011;19763;55.798;37.782;2024-01-30T10:41:37;20.15;;;12.73;;
33421;SDS011;19763;55.798;37.782;2024-01-30T10:44:10;23.85;;;13.77;;
33421;SDS011;19763;55.798;37.782;2024-01-30T10:46:38;24.50;;;14.25;;
33421;SDS011;19763;55.798;37.782;2024-01-30T10:49:05;25.25;;;13.65;;
33421;SDS011;19763;55.798;37.782;2024-01-30T10:51:31;19.67;;;13.07;;
33421;SDS011;19763;55.798;37.782;2024-01-30T10:53:57;20.95;;;12.90;;
33421;SDS011;19763;55.798;37.782;2024-01-30T10:56:23;19.20;;;13.25;;
33421;SDS011;19763;55.798;37.782;2024-01-30T10:58:50;21.00;;;13.68;;
33421;SDS011;19763;55.798;37.782;2024-01-30T11:01:21;18.65;;;12.98;;
33421;SDS011;19763;55.798;37.782;2024-01-30T11:03:54;22.00;;;14.07;;
33421;SDS011;19763;55.798;37.782;2024-01-30T11:06:22;20.55;;;14.05;;
33421;SDS011;19763;55.798;37.782;2024-01-30T11:09:05;24.23;;;14.05;;
33421;SDS011;19763;55.798;37.782;2024-01-30T11:11:51;20.55;;;13.57;;
33421;SDS011;19763;55.798;37.782;2024-01-30T11:14:23;20.13;;;13.00;;
33421;SDS011;19763;55.798;37.782;2024-01-30T11:16:51;19.75;;;12.95;;
33421;SDS011;19763;55.798;37.782;2024-01-30T11:19:22;21.33;;;13.73;;
33421;SDS011;19763;55.798;37.782;2024-01-30T11:21:54;20.80;;;13.75;;
33421;SDS011;19763;55.798;37.782;2024-01-30T11:24:22;18.23;;;13.23;;
33421;SDS011;19763;55.798;37.782;2024-01-30T11:26:58;25.92;;;16.83;;
33421;SDS011;19763;55.798;37.782;2024-01-30T11:29:24;17.33;;;12.48;;
33421;SDS011;19763;55.798;37.782;2024-01-30T11:31:57;22.15;;;13.95;;
33421;SDS011;19763;55.798;37.782;2024-01-30T11:34:24;20.13;;;13.07;;
33421;SDS011;19763;55.798;37.782;2024-01-30T11:36:55;18.52;;;13.07;;
33421;SDS011;19763;55.798;37.782;2024-01-30T11:39:26;20.52;;;13.10;;
33421;SDS011;19763;55.798;37.782;2024-01-30T11:41:52;18.73;;;12.88;;
33421;SDS011;19763;55.798;37.782;2024-01-30T11:44:19;20.90;;;13.98;;
33421;SDS011;19763;55.798;37.782;2024-01-30T11:46:49;20.05;;;13.55;;
33421;SDS011;19763;55.798;37.782;2024-01-30T11:49:17;22.13;;;13.68;;
33421;SDS011;19763;55.798;37.782;2024-01-30T11:51:46;22.67;;;13.52;;
33421;SDS011;19763;55.798;37.782;2024-01-30T11:54:14;20.80;;;13.77;;
33421;SDS011;19763;55.798;37.782;2024-01-30T11:56:41;19.52;;;13.52;;
33421;SDS011;19763;55.798;37.782;2024-01-30T11:59:08;21.48;;;14.25;;
33421;SDS011;19763;55.798;37.782;2024-01-30T12:01:34;18.98;;;13.10;;
33421;SDS011;19763;55.798;37.782;2024-01-30T12:04:00;22.27;;;14.05;;
33421;SDS011;19763;55.798;37.782;2024-01-30T12:06:26;19.27;;;13.50;;
33421;SDS011;19763;55.798;37.782;2024-01-30T12:08:58;19.80;;;13.90;;
33421;SDS011;19763;55.798;37.782;2024-01-30T12:11:25;22.23;;;13.57;;
33421;SDS011;19763;55.798;37.782;2024-01-30T12:13:52;19.58;;;12.73;;
33421;SDS011;19763;55.798;37.782;2024-01-30T12:16:18;21.10;;;14.10;;
33421;SDS011;19763;55.798;37.782;2024-01-30T12:18:44;22.65;;;13.57;;
33421;SDS011;19763;55.798;37.782;2024-01-30T12:21:10;21.55;;;14.48;;
33421;SDS011;19763;55.798;37.782;2024-01-30T12:23:35;19.75;;;13.52;;
33421;SDS011;19763;55.798;37.782;2024-01-30T12:26:01;18.95;;;13.88;;
33421;SDS011;19763;55.798;37.782;2024-01-30T12:28:32;18.03;;;12.80;;
33421;SDS011;19763;55.798;37.782;2024-01-30T12:31:02;21.40;;;14.07;;
33421;SDS011;19763;55.798;37.782;2024-01-30T12:33:29;20.00;;;14.07;;
33421;SDS011;19763;55.798;37.782;2024-01-30T12:35:58;19.48;;;14.20;;
33421;SDS011;19763;55.798;37.782;2024-01-30T12:40:55;21.33;;;13.43;;
33421;SDS011;19763;55.798;37.782;2024-01-30T12:43:22;20.75;;;14.23;;
33421;SDS011;19763;55.798;37.782;2024-01-30T12:45:49;21.60;;;14.40;;
33421;SDS011;19763;55.798;37.782;2024-01-30T12:48:15;24.00;;;15.13;;
33421;SDS011;19763;55.798;37.782;2024-01-30T12:50:41;22.20;;;13.77;;
33421;SDS011;19763;55.798;37.782;2024-01-30T12:53:07;21.00;;;14.73;;
33421;SDS011;19763;55.798;37.782;2024-01-30T12:55:34;19.00;;;14.35;;
33421;SDS011;19763;55.798;37.782;2024-01-30T12:58:00;22.55;;;14.15;;
33421;SDS011;19763;55.798;37.782;2024-01-30T13:00:25;19.92;;;13.75;;
33421;SDS011;19763;55.798;37.782;2024-01-30T13:02:51;22.95;;;13.90;;
33421;SDS011;19763;55.798;37.782;2024-01-30T13:05:17;23.08;;;15.10;;
33421;SDS011;19763;55.798;37.782;2024-01-30T13:07:42;20.92;;;13.32;;
33421;SDS011;19763;55.798;37.782;2024-01-30T13:10:09;21.67;;;13.32;;
33421;SDS011;19763;55.798;37.782;2024-01-30T13:12:34;21.17;;;14.32;;
33421;SDS011;19763;55.798;37.782;2024-01-30T13:15:01;23.50;;;14.20;;
33421;SDS011;19763;55.798;37.782;2024-01-30T13:19:58;22.38;;;13.52;;
33421;SDS011;19763;55.798;37.782;2024-01-30T13:22:24;21.38;;;14.15;;
33421;SDS011;19763;55.798;37.782;2024-01-30T13:24:50;21.45;;;13.07;;
33421;SDS011;19763;55.798;37.782;2024-01-30T13:27:15;21.58;;;13.57;;
33421;SDS011;19763;55.798;37.782;2024-01-30T13:29:42;20.73;;;13.70;;
33421;SDS011;19763;55.798;37.782;2024-01-30T13:32:07;21.98;;;13.82;;
33421;SDS011;19763;55.798;37.782;2024-01-30T13:34:33;22.17;;;13.00;;
33421;SDS011;19763;55.798;37.782;2024-01-30T13:36:59;22.48;;;13.57;;
33421;SDS011;19763;55.798;37.782;2024-01-30T13:39:24;23.10;;;14.07;;
33421;SDS011;19763;55.798;37.782;2024-01-30T13:41:50;21.92;;;14.20;;
33421;SDS011;19763;55.798;37.782;2024-01-30T13:44:16;26.80;;;16.25;;
33421;SDS011;19763;55.798;37.782;2024-01-30T13:46:42;24.23;;;14.65;;
33421;SDS011;19763;55.798;37.782;2024-01-30T13:49:08;25.35;;;14.80;;
33421;SDS011;19763;55.798;37.782;2024-01-30T13:51:34;27.77;;;15.75;;
33421;SDS011;19763;55.798;37.782;2024-01-30T13:54:00;24.33;;;15.45;;
33421;SDS011;19763;55.798;37.782;2024-01-30T13:56:25;22.00;;;15.20;;
33421;SDS011;19763;55.798;37.782;2024-01-30T13:58:52;24.52;;;15.00;;
33421;SDS011;19763;55.798;37.782;2024-01-30T14:01:17;22.02;;;14.50;;
33421;SDS011;19763;55.798;37.782;2024-01-30T14:03:44;26.27;;;15.27;;
33421;SDS011;19763;55.798;37.782;2024-01-30T14:06:11;27.95;;;15.63;;
33421;SDS011;19763;55.798;37.782;2024-01-30T14:08:37;26.85;;;16.05;;
33421;SDS011;19763;55.798;37.782;2024-01-30T14:11:03;26.17;;;15.27;;
33421;SDS011;19763;55.798;37.782;2024-01-30T14:13:29;22.90;;;15.27;;
33421;SDS011;19763;55.798;37.782;2024-01-30T14:15:56;25.10;;;14.23;;
33421;SDS011;19763;55.798;37.782;2024-01-30T14:18:22;23.33;;;15.10;;